Flight Track Log - Related Links

Times and Time Zones

All times are in EDT time to prevent confusion due to time zone crossing. See the N700QA flight status page for this flight to view local times or setup timezone preferences in your user account.

Time Position Orientation Groundspeed Altitude Reporting Facility
EDT Latitude Longitude Course Direction KTS MPH feet Rate Location/Type
Tue 06:06:13 PM 37.3833 -121.9667 360° North 173 199 2,200  Level Northern Cal TRACON
Tue 06:07:13 PM 37.4333 -121.9667 360° North 222 255 4,600 1,438 Climbing Northern Cal TRACON
Tue 06:08:14 PM 37.4000 -121.8833 117° Southeast 262 302 5,100 619 Climbing Northern Cal TRACON
Tue 06:09:19 PM 37.3500 -121.8167 133° Southeast 276 318 5,900 1,412 Climbing Northern Cal TRACON
Tue 06:10:13 PM 37.3089 -121.7556 130° Southeast 268 308 7,900 1,513 Climbing Oakland Center
Tue 06:11:14 PM 37.2983 -121.6550 97° East 290 334 8,800 1,366 Climbing Oakland Center
Tue 06:12:16 PM 37.2556 -121.5667 121° Southeast 298 343 10,700 2,293 Climbing Oakland Center
Tue 06:13:17 PM 37.1775 -121.4850 140° Southeast 305 351 13,500 2,607 Climbing Oakland Center
Tue 06:14:18 PM 37.1097 -121.4217 143° Southeast 307 353 16,000 2,049 Climbing Oakland Center
Tue 06:15:20 PM 37.0408 -121.3492 140° Southeast 309 356 17,700 1,756 Climbing Oakland Center
Tue 06:16:21 PM 36.9703 -121.2772 141° Southeast 324 373 19,600 1,574 Climbing Oakland Center
Tue 06:17:22 PM 36.8967 -121.2044 142° Southeast 336 387 20,900 1,512 Climbing Oakland Center
Tue 06:18:24 PM 36.8156 -121.1225 141° Southeast 345 397 22,700 1,512 Climbing Oakland Center
Tue 06:19:25 PM 36.7386 -121.0492 143° Southeast 349 402 24,000 1,279 Climbing Oakland Center
Tue 06:20:26 PM 36.6611 -120.9708 141° Southeast 357 411 25,300 1,122 Climbing Oakland Center
Tue 06:21:28 PM 36.5825 -120.8925 141° Southeast 361 415 26,300 829 Climbing Oakland Center
Tue 06:22:29 PM 36.5025 -120.8144 142° Southeast 366 421 27,000 393 Climbing Oakland Center
Tue 06:23:30 PM 36.4194 -120.7306 141° Southeast 383 441 27,100 49 Climbing Oakland Center
Tue 06:24:31 PM 36.3344 -120.6456 141° Southeast 391 450 27,100  Level Oakland Center
Tue 06:25:33 PM 36.2481 -120.5617 142° Southeast 395 455 27,100  Level Oakland Center
Tue 06:26:34 PM 36.1619 -120.4769 142° Southeast 395 455 27,100  Level Oakland Center
Tue 06:27:35 PM 36.0758 -120.3919 141° Southeast 396 456 27,100  Level Oakland Center
Tue 06:28:37 PM 35.9719 -120.2906 142° Southeast 394 453 27,100  Level Oakland Center
Tue 06:29:38 PM 35.8844 -120.2067 142° Southeast 395 455 27,100  Level Oakland Center
Tue 06:30:39 PM 35.7986 -120.1211 141° Southeast 395 455 27,100  Level Oakland Center
Tue 06:31:41 PM 35.7119 -120.0389 142° Southeast 392 451 27,100  Level Oakland Center
Tue 06:32:42 PM 35.6250 -119.9556 142° Southeast 392 451 27,100  Level Oakland Center
Tue 06:33:43 PM 35.5344 -119.8789 145° Southeast 391 450 27,100  Level Oakland Center
Tue 06:34:44 PM 35.4442 -119.8011 145° Southeast 392 451 27,100  Level Oakland Center
Tue 06:35:46 PM 35.3550 -119.7233 145° Southeast 390 449 27,100  Level Oakland Center
Tue 06:36:22 PM 35.3197 -119.6931 145° Southeast 390 449 27,100 -242 Level Los Angeles Center
Tue 06:37:25 PM 35.2128 -119.6014 145° Southeast 389 448 26,700 -624 Descending Los Angeles Center
Tue 06:38:27 PM 35.1222 -119.5261 146° Southeast 393 452 25,800 -1,016 Descending Los Angeles Center
Tue 06:39:29 PM 35.0153 -119.4331 145° Southeast 393 452 24,600 -926 Descending Los Angeles Center
Tue 06:40:43 PM 34.9256 -119.3547 144° Southeast 396 456 23,700 -662 Descending Los Angeles Center
Tue 06:41:45 PM 34.8142 -119.2625 146° Southeast 402 463 23,100 -726 Descending Los Angeles Center
Tue 06:42:47 PM 34.7231 -119.1847 145° Southeast 401 461 22,200 -1,452 Descending Los Angeles Center
Tue 06:43:49 PM 34.6161 -119.0964 146° Southeast 414 476 20,100 -1,935 Descending Los Angeles Center
Tue 06:44:51 PM 34.5261 -119.0178 144° Southeast 399 459 18,200 -1,742 Descending Los Angeles Center
Tue 06:45:53 PM 34.4389 -118.9453 146° Southeast 380 437 16,500 -1,548 Descending Los Angeles Center
Tue 06:46:55 PM 34.3719 -118.8903 146° Southeast 366 421 15,000 -1,872 Descending Los Angeles Center
Tue 06:47:58 PM 34.2592 -118.8428 161° South 356 410 12,600 -1,536 Descending Los Angeles Center
Tue 06:49:00 PM 34.1694 -118.8083 162° South 343 395 11,800 -919 Descending Los Angeles Center
Tue 06:50:02 PM 34.0753 -118.7739 163° South 307 353 10,700 -823 Descending Los Angeles Center
Tue 06:51:04 PM 34.0350 -118.6864 119° Southeast 313 360 10,100 -629 Descending Los Angeles Center
Tue 06:52:06 PM 34.0283 -118.5889 95° East 295 339 9,400 -912 Descending Los Angeles Center
Tue 06:53:09 PM 34.0178 -118.4847 97° East 286 329 8,200 -1,161 Descending Los Angeles Center
Tue 06:54:10 PM 34.0128 -118.4044 94° East 279 321 7,000 -1,366 Descending Los Angeles Center
Tue 06:55:12 PM 34.0278 -118.3158 78° East 273 314 5,400 -1,584 Descending Los Angeles Center
Tue 06:56:15 PM 34.0389 -118.2222 82° East 247 284 3,700 -1,056 Descending Los Angeles Center
Tue 06:57:17 PM 33.9928 -118.2083 166° South 199 229 3,200 -387 Descending Los Angeles Center
Tue 06:58:19 PM 33.9669 -118.2567 237° Southwest 178 205 2,900 -532 Descending Los Angeles Center
Tue 06:59:21 PM 33.9617 -118.3133 264° West 174 200 2,100 -823 Descending Los Angeles Center
Tue 07:00:23 PM 33.9556 -118.3619 261° West 158 182 1,200 -919 Descending Los Angeles Center
Tue 07:01:25 PM 33.9517 -118.4017 263° West 133 153 200 -968 Descending Los Angeles Center
Tue 07:03:00 PM 33.9425 -118.4081 228° Southwest  Level Estimated
Tue 07:10:00 PM 33.9425 -118.4081 228° Southwest  Level Estimated

Login

Don't have an account? Register now (free) for customized features, flight alerts, and more!